MMLP/LAP METAR and TAF weather

Enter ICAO airport designator
Station Type Date Time Source
MMLP METAR 2021/05/15 23:40 UTC NOAA

MMLP 152340Z 22014KT 10SM FEW100 30/10 A2985 RMK SLP108 57009 914 8/030


Station Type Date Time Source
MMLP Decoded METAR 2021/05/15 23:40 UTC NOAA

La Paz International Airport, Mexico (MMLP) 24-04N 110-22W
May 15, 2021 - 07:40 PM EDT / 2021.05.15 2340 UTC
Wind: from the SW (220 degrees) at 16 MPH (14 KT):0
Visibility: 10 mile(s):0
Sky conditions: mostly clear
Temperature: 86 F (30 C)
Dew Point: 50 F (10 C)
Relative Humidity: 28%
Pressure (altimeter): 29.85 in. Hg (1010 hPa)
Pressure tendency: 0.03 inches (0.9 hPa) lower than three hours ago
ob: MMLP 152340Z 22014KT 10SM FEW100 30/10 A2985 RMK SLP108 57009 914 8/030
cycle: 23

Station Type Date Time Source
MMLP TAF 2021/05/15 18:41 UTC NOAA

TAF MMLP 151633Z 1518/1618 30014KT P6SM BKN220
FM160300 20008KT P6SM SCT220
FM161600 26008KT P6SM SKC

Example: see airport list